Time;durP1;ratioP1;P1;durP2;ratioP2;P2;SDS_P1;SDS_P2;PMS_P1;PMS_P2;Temp;Humidity;BMP_temperature;BMP_pressure;BME280_temperature;BME280_humidity;BME280_pressure;Samples;Min_cycle;Max_cycle;Signal;HPM_P1;HPM_P2
2022/03/30 09:19:02;;;;;;;15.40;9.23;;;;;;;;;;5098009;28;20062;-58
2022/03/30 09:22:06;;;;;;;13.35;9.13;;;;;;;;;;5116437;28;20088;-58
2022/03/30 09:24:34;;;;;;;24.13;9.95;;;;;;;;;;5033499;28;20431;-59
2022/03/30 09:27:01;;;;;;;20.23;9.75;;;;;;;;;;5033970;28;20037;-58
2022/03/30 09:29:31;;;;;;;16.50;9.23;;;;;;;;;;5062689;28;20044;-58
2022/03/30 09:32:01;;;;;;;14.30;9.07;;;;;;;;;;5115205;28;20084;-58
2022/03/30 09:34:33;;;;;;;11.25;8.43;;;;;;;;;;5116247;28;20020;-57
2022/03/30 09:37:00;;;;;;;15.02;9.40;;;;;;;;;;5116449;28;20082;-58
2022/03/30 09:39:34;;;;;;;13.00;9.75;;;;;;;;;;5114380;28;20389;-58
2022/03/30 09:42:01;;;;;;;16.30;8.70;;;;;;;;;;5114186;28;20388;-58
2022/03/30 09:44:30;;;;;;;17.00;9.07;;;;;;;;;;5114989;28;20464;-58
2022/03/30 09:47:06;;;;;;;18.50;8.82;;;;;;;;;;5115003;28;20027;-58
2022/03/30 09:49:37;;;;;;;16.48;7.88;;;;;;;;;;5114896;28;20027;-58
2022/03/30 09:52:13;;;;;;;20.80;10.10;;;;;;;;;;5115719;28;20178;-58
2022/03/30 09:54:53;;;;;;;19.10;9.63;;;;;;;;;;5116075;28;20034;-58
2022/03/30 09:57:19;;;;;;;18.65;10.52;;;;;;;;;;5114902;28;20073;-58
2022/03/30 10:00:08;;;;;;;22.30;10.10;;;;;;;;;;5115921;28;20024;-58
2022/03/30 10:02:34;;;;;;;16.08;9.85;;;;;;;;;;5101150;28;20031;-58
2022/03/30 10:05:01;;;;;;;14.05;8.90;;;;;;;;;;5116029;28;20023;-58
2022/03/30 10:07:28;;;;;;;16.27;9.68;;;;;;;;;;5114241;28;20035;-58
2022/03/30 10:09:56;;;;;;;17.00;10.00;;;;;;;;;;5114185;28;20034;-58
2022/03/30 10:12:23;;;;;;;16.00;10.35;;;;;;;;;;5115876;28;20438;-58
2022/03/30 10:14:49;;;;;;;19.02;10.65;;;;;;;;;;5115563;28;20055;-58
2022/03/30 10:17:16;;;;;;;22.75;12.23;;;;;;;;;;5114088;28;20051;-56
2022/03/30 10:19:46;;;;;;;13.52;9.45;;;;;;;;;;5115666;28;20040;-58
2022/03/30 10:22:33;;;;;;;17.33;10.32;;;;;;;;;;5114900;28;20059;-58
2022/03/30 10:25:08;;;;;;;20.13;10.07;;;;;;;;;;5115398;28;20031;-58
2022/03/30 10:27:47;;;;;;;17.15;11.10;;;;;;;;;;5115721;28;20085;-58
2022/03/30 10:30:13;;;;;;;24.52;10.38;;;;;;;;;;5115873;28;20423;-58
2022/03/30 10:32:40;;;;;;;17.83;10.63;;;;;;;;;;5113626;28;20353;-58
2022/03/30 10:35:08;;;;;;;20.17;11.40;;;;;;;;;;5114477;28;20051;-58
2022/03/30 10:37:38;;;;;;;18.88;9.57;;;;;;;;;;5113708;28;20028;-58
2022/03/30 10:40:07;;;;;;;20.20;9.32;;;;;;;;;;5113680;28;20118;-58
2022/03/30 10:42:52;;;;;;;14.35;9.15;;;;;;;;;;5115538;28;20473;-58
2022/03/30 10:45:36;;;;;;;19.15;9.80;;;;;;;;;;5113270;28;20023;-58
2022/03/30 10:48:11;;;;;;;13.82;8.93;;;;;;;;;;5114724;28;20062;-58
2022/03/30 10:50:43;;;;;;;15.02;9.75;;;;;;;;;;5115109;28;20031;-58
2022/03/30 10:53:28;;;;;;;16.77;9.68;;;;;;;;;;5114491;28;20027;-58
2022/03/30 10:55:54;;;;;;;14.73;10.05;;;;;;;;;;5115072;28;20020;-58
2022/03/30 10:58:20;;;;;;;20.77;10.05;;;;;;;;;;5112986;28;20016;-58
2022/03/30 11:00:46;;;;;;;11.55;9.52;;;;;;;;;;5115233;28;20473;-58
2022/03/30 11:03:14;;;;;;;15.02;10.30;;;;;;;;;;5114204;28;20226;-58
2022/03/30 11:05:59;;;;;;;17.73;9.93;;;;;;;;;;5097059;28;20019;-58
2022/03/30 11:08:34;;;;;;;17.08;11.13;;;;;;;;;;5113516;28;20031;-58
2022/03/30 11:11:19;;;;;;;16.20;10.50;;;;;;;;;;5113024;28;20073;-58
2022/03/30 11:13:45;;;;;;;15.23;10.60;;;;;;;;;;5112726;28;20073;-58
2022/03/30 11:16:11;;;;;;;20.40;10.02;;;;;;;;;;5113397;28;20066;-58
2022/03/30 11:18:56;;;;;;;17.08;9.10;;;;;;;;;;5114186;28;20079;-58
2022/03/30 11:21:22;;;;;;;12.38;9.02;;;;;;;;;;5113722;28;20058;-58
2022/03/30 11:23:56;;;;;;;15.05;9.65;;;;;;;;;;5112886;28;20032;-58
2022/03/30 11:26:42;;;;;;;21.85;8.85;;;;;;;;;;5114006;28;20059;-58
2022/03/30 11:29:27;;;;;;;14.82;8.50;;;;;;;;;;5072628;28;20078;-58
2022/03/30 11:31:53;;;;;;;11.48;8.27;;;;;;;;;;5112342;28;20031;-58
2022/03/30 11:34:23;;;;;;;20.58;9.10;;;;;;;;;;5112365;28;20522;-58
2022/03/30 11:36:49;;;;;;;12.13;9.30;;;;;;;;;;5112784;28;20299;-58
2022/03/30 11:39:22;;;;;;;19.70;9.18;;;;;;;;;;5114074;28;20016;-58
2022/03/30 11:41:56;;;;;;;15.00;8.27;;;;;;;;;;5114270;28;20027;-58
2022/03/30 11:47:13;;;;;;;10.10;7.65;;;;;;;;;;5114327;28;20089;-59
2022/03/30 11:49:39;;;;;;;;;;;;;;;;;;5112700;28;20028;-59
2022/03/30 11:52:15;;;;;;;19.05;10.05;;;;;;;;;;5112236;28;19926;-59
2022/03/30 11:54:47;;;;;;;13.80;9.43;;;;;;;;;;5113932;28;20067;-59
2022/03/30 11:57:15;;;;;;;23.10;11.88;;;;;;;;;;5112449;28;20024;-59
2022/03/30 11:59:41;;;;;;;16.30;10.85;;;;;;;;;;5113901;28;20354;-59
2022/03/30 12:02:07;;;;;;;14.13;10.73;;;;;;;;;;5111926;28;20392;-59
2022/03/30 12:04:34;;;;;;;15.18;10.90;;;;;;;;;;5112799;28;20032;-59
2022/03/30 12:07:00;;;;;;;15.80;10.65;;;;;;;;;;5113060;28;20028;-59
2022/03/30 12:09:26;;;;;;;19.67;11.60;;;;;;;;;;5112015;28;20023;-59
2022/03/30 12:11:52;;;;;;;15.38;11.75;;;;;;;;;;5112356;28;20172;-59
2022/03/30 12:14:28;;;;;;;11.98;10.52;;;;;;;;;;5096072;28;20031;-59
2022/03/30 12:16:54;;;;;;;16.48;11.25;;;;;;;;;;5113278;28;20035;-59
2022/03/30 12:19:20;;;;;;;13.98;10.60;;;;;;;;;;5113083;28;20480;-59
2022/03/30 12:21:46;;;;;;;14.40;11.50;;;;;;;;;;5112165;28;20039;-58
2022/03/30 12:24:16;;;;;;;16.45;11.55;;;;;;;;;;5113508;28;20110;-59
2022/03/30 12:26:42;;;;;;;14.40;11.00;;;;;;;;;;5113377;28;20032;-60
2022/03/30 12:29:15;;;;;;;20.30;11.40;;;;;;;;;;5113124;28;20066;-59
2022/03/30 12:31:46;;;;;;;12.38;10.32;;;;;;;;;;5113649;28;20031;-57
2022/03/30 12:34:17;;;;;;;14.10;11.85;;;;;;;;;;5112529;28;20118;-58
2022/03/30 12:36:46;;;;;;;17.55;12.75;;;;;;;;;;5113641;28;20111;-57
2022/03/30 12:39:20;;;;;;;15.95;12.52;;;;;;;;;;5113430;28;20027;-57
2022/03/30 12:42:06;;;;;;;18.60;13.63;;;;;;;;;;5113523;28;20084;-57
2022/03/30 12:44:38;;;;;;;26.17;15.20;;;;;;;;;;5114642;28;20028;-57
2022/03/30 12:47:05;;;;;;;14.50;11.65;;;;;;;;;;5116349;28;20088;-59
2022/03/30 12:49:38;;;;;;;18.45;11.02;;;;;;;;;;5116519;28;20024;-59
2022/03/30 12:52:11;;;;;;;19.67;12.40;;;;;;;;;;5117737;28;20463;-59
2022/03/30 12:54:38;;;;;;;23.00;13.52;;;;;;;;;;5117490;28;20370;-59
2022/03/30 12:57:04;;;;;;;14.85;11.65;;;;;;;;;;5117414;28;20357;-59
2022/03/30 12:59:32;;;;;;;14.82;8.95;;;;;;;;;;5116955;28;20107;-59
2022/03/30 13:02:16;;;;;;;10.73;8.65;;;;;;;;;;5116632;28;20035;-59
2022/03/30 13:04:48;;;;;;;8.63;7.70;;;;;;;;;;5099060;28;20034;-58
2022/03/30 13:07:16;;;;;;;7.93;6.07;;;;;;;;;;5117361;28;20392;-58
2022/03/30 13:10:03;;;;;;;10.10;6.95;;;;;;;;;;5115526;28;20020;-59
2022/03/30 13:12:40;;;;;;;6.55;5.85;;;;;;;;;;5115491;28;20119;-58
2022/03/30 13:15:07;;;;;;;8.07;5.32;;;;;;;;;;5117766;28;20082;-58
2022/03/30 13:17:33;;;;;;;6.43;5.35;;;;;;;;;;5117047;28;20038;-59
2022/03/30 13:20:00;;;;;;;7.72;5.20;;;;;;;;;;5115217;28;20493;-59
2022/03/30 13:22:26;;;;;;;5.80;5.18;;;;;;;;;;5115509;28;20077;-57
2022/03/30 13:24:54;;;;;;;9.10;5.68;;;;;;;;;;5116156;28;20063;-59
2022/03/30 13:27:20;;;;;;;5.78;5.15;;;;;;;;;;5114518;28;20055;-57
2022/03/30 13:29:52;;;;;;;6.07;5.40;;;;;;;;;;5114563;28;20051;-59
2022/03/30 13:32:21;;;;;;;6.60;5.03;;;;;;;;;;5116906;28;20038;-59
2022/03/30 13:34:47;;;;;;;7.85;4.93;;;;;;;;;;5116485;28;20060;-59
2022/03/30 13:37:13;;;;;;;6.90;5.05;;;;;;;;;;5115195;28;20031;-59
2022/03/30 13:39:41;;;;;;;6.00;5.05;;;;;;;;;;5116361;28;20031;-60
2022/03/30 13:42:07;;;;;;;5.03;4.20;;;;;;;;;;5115624;28;20118;-59
2022/03/30 13:44:33;;;;;;;5.50;4.32;;;;;;;;;;5117001;28;20057;-58
2022/03/30 13:46:59;;;;;;;5.18;4.45;;;;;;;;;;5115686;28;20388;-58
2022/03/30 13:49:41;;;;;;;4.30;3.85;;;;;;;;;;5115930;28;20465;-58
2022/03/30 13:52:13;;;;;;;5.47;4.22;;;;;;;;;;5117389;28;20468;-58
2022/03/30 13:54:39;;;;;;;5.75;4.97;;;;;;;;;;5114687;28;20464;-59
2022/03/30 13:57:05;;;;;;;9.13;5.50;;;;;;;;;;5098524;28;20106;-59
2022/03/30 13:59:31;;;;;;;6.15;4.22;;;;;;;;;;5114891;28;20499;-59
2022/03/30 14:01:57;;;;;;;5.93;4.70;;;;;;;;;;5114650;28;20027;-57
2022/03/30 14:04:23;;;;;;;5.60;5.00;;;;;;;;;;5115802;28;20027;-57
2022/03/30 14:06:49;;;;;;;6.25;5.55;;;;;;;;;;5115815;28;20020;-57
2022/03/30 14:09:15;;;;;;;6.90;5.45;;;;;;;;;;5098136;28;20310;-56
2022/03/30 14:11:42;;;;;;;7.28;6.13;;;;;;;;;;5115390;28;20023;-56
2022/03/30 14:14:11;;;;;;;7.00;5.88;;;;;;;;;;5115827;28;20476;-57
2022/03/30 14:16:37;;;;;;;7.07;6.38;;;;;;;;;;5115424;28;20024;-56
2022/03/30 14:19:03;;;;;;;7.97;5.95;;;;;;;;;;5115387;28;20044;-56
2022/03/30 14:21:29;;;;;;;7.38;6.32;;;;;;;;;;5115730;28;20027;-55
2022/03/30 14:23:55;;;;;;;7.10;6.05;;;;;;;;;;5114621;28;20034;-56
2022/03/30 14:26:22;;;;;;;6.55;5.38;;;;;;;;;;5115639;28;20033;-56
2022/03/30 14:28:48;;;;;;;7.68;5.88;;;;;;;;;;5115276;28;20029;-56
2022/03/30 14:31:14;;;;;;;8.60;5.78;;;;;;;;;;5115817;28;20093;-56
2022/03/30 14:33:43;;;;;;;8.68;5.85;;;;;;;;;;5115656;28;20028;-54
2022/03/30 14:36:09;;;;;;;10.30;6.10;;;;;;;;;;5115172;28;20031;-57
2022/03/30 14:38:35;;;;;;;5.72;4.57;;;;;;;;;;5114484;28;20049;-57
2022/03/30 14:41:01;;;;;;;6.95;5.80;;;;;;;;;;5113848;28;20024;-58
2022/03/30 14:43:27;;;;;;;8.02;5.20;;;;;;;;;;5115387;28;20038;-57
2022/03/30 14:45:53;;;;;;;9.13;5.75;;;;;;;;;;5115025;28;20024;-58
2022/03/30 14:48:20;;;;;;;6.50;5.60;;;;;;;;;;5114627;28;20055;-58
2022/03/30 14:50:48;;;;;;;6.13;5.25;;;;;;;;;;5115112;28;20031;-57
2022/03/30 14:53:14;;;;;;;5.95;5.35;;;;;;;;;;5113850;28;20026;-58
2022/03/30 14:55:40;;;;;;;7.85;6.43;;;;;;;;;;5113996;28;20055;-57
2022/03/30 14:58:06;;;;;;;7.25;5.68;;;;;;;;;;5114353;28;20035;-58
2022/03/30 15:00:34;;;;;;;7.10;5.70;;;;;;;;;;5114737;28;20024;-57
2022/03/30 15:03:01;;;;;;;6.75;6.05;;;;;;;;;;5114847;28;20027;-57
2022/03/30 15:05:27;;;;;;;8.93;6.30;;;;;;;;;;5114565;28;20028;-56
2022/03/30 15:07:53;;;;;;;7.43;6.68;;;;;;;;;;5113497;28;20058;-58
2022/03/30 15:10:19;;;;;;;6.53;5.93;;;;;;;;;;5114611;28;20032;-57
2022/03/30 15:12:46;;;;;;;10.52;7.50;;;;;;;;;;5114186;28;20421;-57
2022/03/30 15:15:12;;;;;;;8.65;6.68;;;;;;;;;;5115221;28;20031;-57
2022/03/30 15:17:38;;;;;;;11.13;6.65;;;;;;;;;;5113884;28;20360;-57
2022/03/30 15:20:05;;;;;;;10.85;7.60;;;;;;;;;;5112402;28;20055;-56
2022/03/30 15:22:32;;;;;;;8.82;6.65;;;;;;;;;;5112879;28;20028;-58
2022/03/30 15:25:00;;;;;;;9.55;7.05;;;;;;;;;;5114260;28;20028;-57
2022/03/30 15:27:26;;;;;;;8.50;6.97;;;;;;;;;;5114158;28;20031;-57
2022/03/30 15:29:52;;;;;;;8.80;7.90;;;;;;;;;;5114187;28;20107;-56
2022/03/30 15:32:18;;;;;;;10.38;7.53;;;;;;;;;;5114625;28;20034;-57
2022/03/30 15:34:46;;;;;;;12.60;7.85;;;;;;;;;;5113994;28;20039;-58
2022/03/30 15:37:12;;;;;;;13.18;8.45;;;;;;;;;;5095945;28;20077;-57
2022/03/30 15:39:38;;;;;;;12.20;9.57;;;;;;;;;;5113958;28;20020;-58
2022/03/30 15:42:04;;;;;;;10.82;9.73;;;;;;;;;;5114263;28;20104;-58
2022/03/30 15:44:32;;;;;;;12.10;9.90;;;;;;;;;;5096647;28;20471;-57
2022/03/30 15:46:59;;;;;;;13.32;10.40;;;;;;;;;;5113358;28;20413;-58
2022/03/30 15:49:25;;;;;;;11.10;8.90;;;;;;;;;;5113994;28;20019;-57
2022/03/30 15:51:51;;;;;;;9.85;8.85;;;;;;;;;;5112276;28;20393;-57
2022/03/30 15:54:21;;;;;;;13.65;10.13;;;;;;;;;;5112715;28;20059;-57
2022/03/30 15:56:50;;;;;;;14.65;10.32;;;;;;;;;;5113848;28;20472;-58
2022/03/30 15:59:16;;;;;;;14.55;11.25;;;;;;;;;;5113586;28;20447;-58
2022/03/30 16:01:44;;;;;;;14.07;10.52;;;;;;;;;;5114040;28;20032;-58
2022/03/30 16:04:13;;;;;;;12.18;10.63;;;;;;;;;;5113483;28;20521;-57
2022/03/30 16:06:41;;;;;;;14.48;10.85;;;;;;;;;;5114234;28;20059;-57
2022/03/30 16:09:08;;;;;;;13.30;11.20;;;;;;;;;;5113564;28;20461;-58
2022/03/30 16:14:24;;;;;;;21.42;11.45;;;;;;;;;;5113721;28;20388;-56
2022/03/30 16:16:50;;;;;;;;;;;;;;;;;;5113697;28;20028;-58
2022/03/30 16:19:17;;;;;;;18.92;11.77;;;;;;;;;;5116151;28;20393;-58
2022/03/30 16:21:43;;;;;;;16.48;10.13;;;;;;;;;;5116206;28;20074;-56
2022/03/30 16:24:12;;;;;;;14.52;10.63;;;;;;;;;;5118026;28;20027;-57
2022/03/30 16:26:39;;;;;;;14.52;11.27;;;;;;;;;;5117261;28;20019;-57
2022/03/30 16:29:08;;;;;;;16.23;10.95;;;;;;;;;;5116485;28;20019;-58
2022/03/30 16:31:36;;;;;;;14.57;11.00;;;;;;;;;;5116646;28;20031;-57
2022/03/30 16:34:05;;;;;;;16.83;12.20;;;;;;;;;;5116301;28;20364;-57
2022/03/30 16:36:32;;;;;;;14.27;11.18;;;;;;;;;;5116121;28;20406;-57
2022/03/30 16:38:58;;;;;;;15.43;12.25;;;;;;;;;;5118125;28;20015;-57
2022/03/30 16:41:28;;;;;;;14.07;11.55;;;;;;;;;;5117329;28;20035;-55
2022/03/30 16:43:55;;;;;;;20.92;13.57;;;;;;;;;;5117149;28;20034;-57
2022/03/30 16:46:21;;;;;;;15.55;12.65;;;;;;;;;;5117840;28;20024;-58
2022/03/30 16:48:47;;;;;;;20.58;14.63;;;;;;;;;;5115987;28;20073;-58
2022/03/30 16:51:13;;;;;;;16.70;12.85;;;;;;;;;;5116495;28;20066;-57
2022/03/30 16:53:39;;;;;;;17.13;13.10;;;;;;;;;;5117144;28;20422;-58
2022/03/30 16:56:05;;;;;;;17.05;13.00;;;;;;;;;;5099474;28;20023;-58
2022/03/30 16:58:32;;;;;;;16.40;13.52;;;;;;;;;;5117568;28;20360;-57
2022/03/30 17:00:59;;;;;;;19.42;13.00;;;;;;;;;;5115718;28;20034;-57
2022/03/30 17:03:29;;;;;;;19.70;13.57;;;;;;;;;;5116937;28;20114;-57
2022/03/30 17:05:58;;;;;;;20.73;13.40;;;;;;;;;;5116364;28;20088;-57
2022/03/30 17:11:11;;;;;;;16.25;13.10;;;;;;;;;;5116265;28;20522;-58
2022/03/30 17:13:38;;;;;;;19.05;13.85;;;;;;;;;;5116979;28;20023;-57
2022/03/30 17:16:04;;;;;;;14.65;11.73;;;;;;;;;;5115936;28;20039;-57
2022/03/30 17:18:30;;;;;;;19.65;13.25;;;;;;;;;;5116544;28;20373;-58
2022/03/30 17:20:59;;;;;;;17.67;13.02;;;;;;;;;;5116216;28;20414;-58
2022/03/30 17:23:26;;;;;;;15.93;13.90;;;;;;;;;;5116992;28;20020;-58
2022/03/30 17:25:52;;;;;;;17.60;13.40;;;;;;;;;;5116665;28;20373;-58
2022/03/30 17:28:18;;;;;;;18.00;14.27;;;;;;;;;;5115591;28;20031;-58
2022/03/30 17:30:44;;;;;;;23.83;16.70;;;;;;;;;;5114712;28;20429;-57
2022/03/30 17:33:10;;;;;;;18.38;14.88;;;;;;;;;;5116341;28;20030;-58
2022/03/30 17:35:37;;;;;;;18.55;13.30;;;;;;;;;;5116981;28;20028;-58
2022/03/30 17:38:07;;;;;;;19.20;14.25;;;;;;;;;;5097919;28;20110;-57
2022/03/30 17:40:36;;;;;;;17.75;14.55;;;;;;;;;;5114927;28;20028;-58
2022/03/30 17:43:05;;;;;;;19.60;14.68;;;;;;;;;;5115382;28;20114;-58
2022/03/30 17:45:32;;;;;;;23.17;16.98;;;;;;;;;;5098803;28;20028;-57
2022/03/30 17:51:50;;;;;;;21.23;17.13;;;;;;;;;;5116109;28;20085;-58
2022/03/30 17:53:29;;;;;;;20.67;16.38;;;;;;;;;;5116375;28;20049;-58
2022/03/30 17:56:00;;;;;;;20.92;16.48;;;;;;;;;;5116031;28;20445;-57
2022/03/30 17:58:30;;;;;;;23.05;16.63;;;;;;;;;;5116473;28;20035;-58
2022/03/30 18:00:56;;;;;;;22.38;17.15;;;;;;;;;;5114889;28;20106;-56
2022/03/30 18:03:22;;;;;;;19.92;15.52;;;;;;;;;;5115920;28;20377;-58
2022/03/30 18:05:51;;;;;;;23.92;18.27;;;;;;;;;;5114302;28;20020;-58
2022/03/30 18:08:17;;;;;;;21.83;16.30;;;;;;;;;;5116388;28;20023;-58
2022/03/30 18:10:46;;;;;;;21.80;17.80;;;;;;;;;;5114455;28;20020;-58
2022/03/30 18:13:28;;;;;;;25.60;17.60;;;;;;;;;;5114892;28;20015;-58
2022/03/30 18:15:56;;;;;;;22.08;17.48;;;;;;;;;;5114819;28;20051;-58
2022/03/30 18:18:22;;;;;;;24.77;18.83;;;;;;;;;;5114630;28;20020;-58
2022/03/30 18:20:52;;;;;;;22.95;18.30;;;;;;;;;;5115849;28;20028;-58
2022/03/30 18:23:21;;;;;;;21.45;16.92;;;;;;;;;;5115396;28;20106;-58
2022/03/30 18:25:47;;;;;;;19.73;15.25;;;;;;;;;;5097221;28;20069;-58
2022/03/30 18:28:15;;;;;;;17.70;13.00;;;;;;;;;;5113813;28;20031;-58
2022/03/30 18:30:42;;;;;;;16.27;12.90;;;;;;;;;;5097116;28;20023;-58
2022/03/30 18:33:08;;;;;;;18.40;13.10;;;;;;;;;;5113818;28;20102;-58
2022/03/30 18:35:35;;;;;;;15.68;12.00;;;;;;;;;;5114469;28;20024;-58
2022/03/30 18:38:02;;;;;;;14.82;12.82;;;;;;;;;;5114815;28;20023;-58
2022/03/30 18:40:28;;;;;;;14.25;12.73;;;;;;;;;;5113234;28;20027;-58
2022/03/30 18:42:54;;;;;;;16.10;12.10;;;;;;;;;;5113261;28;20019;-58
2022/03/30 18:45:23;;;;;;;18.63;13.90;;;;;;;;;;5113531;28;20455;-57
2022/03/30 18:47:53;;;;;;;15.30;11.07;;;;;;;;;;5113440;28;20035;-57
2022/03/30 18:50:20;;;;;;;15.70;11.18;;;;;;;;;;5115005;28;20413;-57
2022/03/30 18:53:01;;;;;;;17.38;11.20;;;;;;;;;;5113093;28;20566;-58
2022/03/30 18:55:28;;;;;;;15.05;10.88;;;;;;;;;;5114701;27;20035;-58
2022/03/30 18:57:54;;;;;;;17.23;13.68;;;;;;;;;;5113435;28;20023;-58
2022/03/30 19:00:20;;;;;;;17.73;12.43;;;;;;;;;;5114647;28;20019;-58
2022/03/30 19:05:31;;;;;;;15.50;11.02;;;;;;;;;;5114543;28;20039;-58
2022/03/30 19:07:57;;;;;;;13.60;11.85;;;;;;;;;;5114576;28;20035;-58
2022/03/30 19:10:24;;;;;;;14.55;10.32;;;;;;;;;;5113616;28;20023;-58
2022/03/30 19:12:51;;;;;;;15.25;12.10;;;;;;;;;;5113851;28;20093;-58
2022/03/30 19:15:19;;;;;;;14.30;9.95;;;;;;;;;;5113085;28;20110;-58
2022/03/30 19:17:45;;;;;;;13.93;11.68;;;;;;;;;;5113480;28;20020;-58
2022/03/30 19:20:12;;;;;;;18.30;12.45;;;;;;;;;;5113677;28;20051;-58
2022/03/30 19:22:38;;;;;;;17.70;13.00;;;;;;;;;;5114002;28;20027;-57
2022/03/30 19:25:05;;;;;;;17.15;12.45;;;;;;;;;;5114132;28;20053;-58
2022/03/30 19:27:33;;;;;;;17.05;13.02;;;;;;;;;;5114464;28;20353;-58
2022/03/30 19:30:06;;;;;;;16.85;12.82;;;;;;;;;;5112789;28;20512;-57
2022/03/30 19:32:35;;;;;;;15.18;11.95;;;;;;;;;;5096409;28;20544;-57
2022/03/30 19:35:01;;;;;;;14.85;12.48;;;;;;;;;;5113824;28;20034;-57
2022/03/30 19:37:27;;;;;;;16.35;11.65;;;;;;;;;;5114047;28;20039;-58
2022/03/30 19:39:53;;;;;;;15.80;11.57;;;;;;;;;;5095935;28;20038;-57
2022/03/30 19:42:20;;;;;;;17.48;13.40;;;;;;;;;;5113644;28;20011;-57
2022/03/30 19:44:52;;;;;;;19.17;13.05;;;;;;;;;;5095640;28;20035;-57
2022/03/30 19:47:19;;;;;;;15.68;11.60;;;;;;;;;;5112656;28;20370;-56
2022/03/30 19:49:47;;;;;;;15.30;11.50;;;;;;;;;;5112572;28;20384;-58
2022/03/30 19:52:17;;;;;;;17.45;12.18;;;;;;;;;;5113385;28;20092;-56
2022/03/30 19:54:43;;;;;;;15.27;11.77;;;;;;;;;;5112900;28;20110;-57
2022/03/30 19:57:09;;;;;;;13.77;10.75;;;;;;;;;;5113021;28;20072;-58
2022/03/30 19:59:36;;;;;;;14.75;11.60;;;;;;;;;;5113929;28;20042;-58
2022/03/30 20:02:07;;;;;;;14.98;10.95;;;;;;;;;;5113805;28;20031;-57
2022/03/30 20:04:36;;;;;;;13.35;11.90;;;;;;;;;;5114077;28;20326;-58
2022/03/30 20:07:02;;;;;;;14.75;11.43;;;;;;;;;;5113764;28;20039;-58
2022/03/30 20:09:28;;;;;;;16.55;11.98;;;;;;;;;;5112192;28;20024;-58
2022/03/30 20:11:56;;;;;;;16.65;12.27;;;;;;;;;;5113774;28;20053;-58
2022/03/30 20:14:25;;;;;;;13.02;11.30;;;;;;;;;;5113254;28;20032;-57
2022/03/30 20:16:51;;;;;;;20.88;13.23;;;;;;;;;;5112397;28;20053;-58
2022/03/30 20:19:20;;;;;;;16.25;12.32;;;;;;;;;;5112437;28;20384;-58
2022/03/30 20:21:50;;;;;;;13.95;11.43;;;;;;;;;;5112056;28;20028;-57
2022/03/30 20:24:18;;;;;;;21.35;12.60;;;;;;;;;;5114462;28;20062;-58
2022/03/30 20:26:44;;;;;;;23.60;13.98;;;;;;;;;;5111982;28;20549;-59
2022/03/30 20:29:13;;;;;;;17.20;12.63;;;;;;;;;;5112814;28;20127;-58
2022/03/30 20:31:40;;;;;;;18.92;12.80;;;;;;;;;;5112806;28;20039;-58
2022/03/30 20:34:07;;;;;;;16.98;11.25;;;;;;;;;;5111884;28;20035;-58
2022/03/30 20:36:36;;;;;;;13.88;10.85;;;;;;;;;;5112142;28;20397;-58
2022/03/30 20:39:07;;;;;;;14.50;11.98;;;;;;;;;;5112149;28;20386;-58
2022/03/30 20:41:36;;;;;;;17.17;12.25;;;;;;;;;;5111740;28;20032;-57
2022/03/30 20:44:02;;;;;;;16.67;12.23;;;;;;;;;;5112025;28;20039;-58
2022/03/30 20:46:31;;;;;;;15.68;11.85;;;;;;;;;;5112348;28;20046;-56
2022/03/30 20:49:01;;;;;;;18.88;12.52;;;;;;;;;;5113733;28;20038;-57
2022/03/30 20:51:32;;;;;;;19.90;11.98;;;;;;;;;;5112206;28;20114;-57
2022/03/30 20:54:05;;;;;;;15.23;10.85;;;;;;;;;;5114073;28;20031;-57
2022/03/30 20:56:34;;;;;;;16.77;11.82;;;;;;;;;;5113474;28;20376;-58
2022/03/30 20:59:01;;;;;;;19.05;13.18;;;;;;;;;;5112372;28;20020;-58
2022/03/30 21:01:27;;;;;;;19.23;13.43;;;;;;;;;;5113010;28;20526;-57
2022/03/30 21:03:56;;;;;;;17.50;11.70;;;;;;;;;;5113691;28;20074;-57
2022/03/30 21:06:24;;;;;;;16.67;13.70;;;;;;;;;;5117392;28;20107;-56
2022/03/30 21:08:51;;;;;;;14.18;12.23;;;;;;;;;;5116191;28;20035;-58
2022/03/30 21:11:26;;;;;;;16.58;12.27;;;;;;;;;;5117812;28;20468;-58
2022/03/30 21:13:53;;;;;;;17.13;12.85;;;;;;;;;;5116015;28;20020;-56
2022/03/30 21:16:20;;;;;;;19.02;12.13;;;;;;;;;;5115300;28;20385;-55
2022/03/30 21:18:49;;;;;;;17.70;13.07;;;;;;;;;;5115087;28;20147;-56
2022/03/30 21:21:21;;;;;;;13.98;11.25;;;;;;;;;;5117228;28;20088;-57
2022/03/30 21:23:50;;;;;;;16.65;11.95;;;;;;;;;;5115264;28;20111;-58
2022/03/30 21:26:17;;;;;;;15.90;12.88;;;;;;;;;;5117140;28;20027;-56
2022/03/30 21:28:46;;;;;;;20.33;12.77;;;;;;;;;;5115285;28;20024;-58
2022/03/30 21:31:12;;;;;;;19.10;14.02;;;;;;;;;;5116622;28;20035;-57
2022/03/30 21:33:38;;;;;;;17.30;12.98;;;;;;;;;;5116960;28;20069;-58
2022/03/30 21:36:05;;;;;;;20.60;13.93;;;;;;;;;;5097559;28;20043;-57
2022/03/30 21:38:34;;;;;;;15.98;12.27;;;;;;;;;;5116711;28;20116;-58
2022/03/30 21:41:03;;;;;;;20.13;12.25;;;;;;;;;;5115645;28;20169;-58
2022/03/30 21:43:30;;;;;;;17.00;12.88;;;;;;;;;;5116774;28;20175;-57
2022/03/30 21:46:02;;;;;;;16.45;13.13;;;;;;;;;;5116782;28;20077;-57
2022/03/30 21:48:28;;;;;;;15.98;12.77;;;;;;;;;;5116719;28;20035;-58
2022/03/30 21:50:54;;;;;;;26.40;13.27;;;;;;;;;;5115440;28;20436;-58
2022/03/30 21:53:28;;;;;;;20.50;14.63;;;;;;;;;;5116640;28;20023;-58
2022/03/30 21:55:54;;;;;;;16.38;12.25;;;;;;;;;;5116572;28;20028;-58
2022/03/30 21:58:23;;;;;;;20.38;13.48;;;;;;;;;;5114451;28;20024;-58
2022/03/30 22:00:55;;;;;;;18.10;13.60;;;;;;;;;;5114470;28;20542;-58
2022/03/30 22:03:23;;;;;;;19.98;14.02;;;;;;;;;;5115829;28;20055;-58
2022/03/30 22:05:54;;;;;;;19.42;14.40;;;;;;;;;;5114546;28;20028;-58
2022/03/30 22:08:20;;;;;;;20.20;14.40;;;;;;;;;;5115461;28;20485;-57
2022/03/30 22:10:49;;;;;;;18.52;13.10;;;;;;;;;;5116023;28;20024;-58
2022/03/30 22:13:19;;;;;;;20.58;15.18;;;;;;;;;;5114083;28;20020;-57
2022/03/30 22:15:45;;;;;;;18.27;13.27;;;;;;;;;;5097157;28;20365;-58
2022/03/30 22:18:15;;;;;;;18.70;14.15;;;;;;;;;;5115273;28;20024;-57
2022/03/30 22:20:41;;;;;;;21.15;15.95;;;;;;;;;;5114218;28;20055;-57
2022/03/30 22:23:10;;;;;;;21.40;14.93;;;;;;;;;;5113721;28;20080;-57
2022/03/30 22:25:36;;;;;;;20.83;15.60;;;;;;;;;;5114621;28;20114;-58
2022/03/30 22:28:10;;;;;;;22.00;17.00;;;;;;;;;;5113785;28;20185;-57
2022/03/30 22:30:37;;;;;;;23.75;15.50;;;;;;;;;;5115317;28;20465;-57
2022/03/30 22:35:54;;;;;;;16.63;13.07;;;;;;;;;;5115312;28;20054;-58
2022/03/30 22:38:29;;;;;;;27.70;15.65;;;;;;;;;;5115004;28;20023;-57
2022/03/30 22:40:58;;;;;;;15.75;13.40;;;;;;;;;;5115037;28;20019;-58
2022/03/30 22:43:26;;;;;;;18.90;15.15;;;;;;;;;;5113310;28;20019;-58
2022/03/30 22:46:01;;;;;;;21.92;15.20;;;;;;;;;;5115164;28;20533;-58
2022/03/30 22:48:28;;;;;;;22.10;15.18;;;;;;;;;;5096706;28;20043;-58
2022/03/30 22:50:54;;;;;;;21.50;14.23;;;;;;;;;;5115120;28;20127;-58
2022/03/30 22:53:23;;;;;;;21.85;14.95;;;;;;;;;;5114495;28;20080;-57
2022/03/30 22:55:51;;;;;;;20.33;15.20;;;;;;;;;;5114403;28;20545;-58
2022/03/30 22:58:26;;;;;;;17.33;14.50;;;;;;;;;;5115445;28;20039;-54
2022/03/30 23:00:55;;;;;;;21.20;15.48;;;;;;;;;;5096614;28;20077;-58
2022/03/30 23:03:22;;;;;;;18.98;15.07;;;;;;;;;;5113323;28;20042;-58
2022/03/30 23:08:38;;;;;;;21.02;14.25;;;;;;;;;;5114408;28;20039;-56
2022/03/30 23:11:04;;;;;;;19.02;15.18;;;;;;;;;;5114320;28;20030;-57
2022/03/30 23:13:30;;;;;;;18.17;13.30;;;;;;;;;;5114420;28;20019;-57
2022/03/30 23:15:59;;;;;;;18.52;13.90;;;;;;;;;;5113405;28;20027;-57
2022/03/30 23:18:26;;;;;;;21.35;15.60;;;;;;;;;;5114380;28;20029;-59
2022/03/30 23:20:52;;;;;;;23.85;15.25;;;;;;;;;;5114106;28;20473;-58
2022/03/30 23:23:23;;;;;;;20.77;15.82;;;;;;;;;;5114021;28;20457;-57
2022/03/30 23:25:49;;;;;;;14.27;12.07;;;;;;;;;;5114809;28;20031;-58
2022/03/30 23:28:15;;;;;;;20.88;13.52;;;;;;;;;;5111531;28;20035;-58
2022/03/30 23:30:42;;;;;;;20.83;15.40;;;;;;;;;;5114624;28;20028;-57
2022/03/30 23:33:09;;;;;;;16.17;14.25;;;;;;;;;;5112350;28;20028;-57
2022/03/30 23:35:36;;;;;;;17.42;14.15;;;;;;;;;;5112858;28;20083;-56
2022/03/30 23:38:07;;;;;;;18.27;13.15;;;;;;;;;;5113767;28;20066;-58
2022/03/30 23:40:36;;;;;;;21.85;15.52;;;;;;;;;;5113972;28;20035;-57
2022/03/30 23:43:05;;;;;;;15.27;13.65;;;;;;;;;;5112689;28;20072;-58
2022/03/30 23:45:39;;;;;;;18.42;14.15;;;;;;;;;;5113940;28;20054;-58
2022/03/30 23:48:05;;;;;;;18.45;14.30;;;;;;;;;;5113915;28;20110;-56
2022/03/30 23:50:35;;;;;;;20.27;15.00;;;;;;;;;;5112280;28;20024;-58
2022/03/30 23:53:04;;;;;;;21.67;14.82;;;;;;;;;;5112336;28;20020;-58
2022/03/30 23:55:31;;;;;;;16.83;14.00;;;;;;;;;;5114447;28;20027;-57
2022/03/30 23:58:06;;;;;;;16.60;12.77;;;;;;;;;;5113251;28;20027;-58
